Time;durP1;ratioP1;P1;durP2;ratioP2;P2;SDS_P1;SDS_P2;PMS_P1;PMS_P2;Temp;Humidity;BMP_temperature;BMP_pressure;BME280_temperature;BME280_humidity;BME280_pressure;Samples;Min_cycle;Max_cycle;Signal;HPM_P1;HPM_P2
2022/07/19 00:01:51;;;;;;;1.50;0.90;;;19.50;48.30;21.70;94376.00;;;;10519798;28;45222;-62
2022/07/19 00:07:11;;;;;;;1.27;0.93;;;19.50;48.50;21.70;94375.00;;;;10519473;27;45079;-62
2022/07/19 00:12:33;;;;;;;1.20;0.98;;;19.50;48.50;21.60;94378.00;;;;10519732;28;45113;-62
2022/07/19 00:17:54;;;;;;;1.40;0.80;;;19.50;48.60;21.60;94379.00;;;;10518953;28;45165;-62
2022/07/19 00:23:14;;;;;;;2.25;0.95;;;19.50;48.70;21.60;94363.00;;;;10521376;27;45179;-62
2022/07/19 00:28:36;;;;;;;1.05;0.95;;;19.40;48.70;21.60;94356.00;;;;10526097;27;45254;-62
2022/07/19 00:33:56;;;;;;;1.63;1.00;;;19.50;48.80;21.70;94355.00;;;;10526086;28;45226;-62
2022/07/19 00:39:17;;;;;;;1.13;0.80;;;19.50;48.80;21.60;94352.00;;;;10526123;28;45492;-62
2022/07/19 00:44:39;;;;;;;1.10;1.00;;;19.50;48.80;21.60;94349.00;;;;10525718;27;45196;-62
2022/07/19 00:49:59;;;;;;;0.93;0.77;;;19.40;48.80;21.60;94340.00;;;;10525634;28;45268;-62
2022/07/19 00:55:22;;;;;;;1.00;0.90;;;19.50;48.90;21.70;94339.00;;;;10525143;27;45253;-62
2022/07/19 01:00:44;;;;;;;3.28;0.90;;;19.50;49.00;21.60;94336.00;;;;10521557;28;45179;-62
2022/07/19 01:06:06;;;;;;;1.65;0.82;;;19.40;48.90;21.60;94342.00;;;;10522277;27;45748;-63
2022/07/19 01:11:27;;;;;;;0.80;0.80;;;19.40;49.00;21.60;94333.00;;;;10525191;28;45158;-62
2022/07/19 01:16:49;;;;;;;0.73;0.70;;;19.40;49.70;21.60;94336.00;;;;10524768;28;45445;-62
2022/07/19 01:22:11;;;;;;;0.93;0.70;;;19.40;49.10;21.60;94340.00;;;;10525133;28;45753;-62
2022/07/19 01:27:32;;;;;;;1.00;0.90;;;19.40;49.10;21.60;94346.00;;;;10524543;27;45488;-62
2022/07/19 01:32:55;;;;;;;0.93;0.70;;;19.40;49.10;21.60;94343.00;;;;10524585;28;45165;-62
2022/07/19 01:38:17;;;;;;;1.30;0.90;;;19.50;49.20;21.60;94336.00;;;;10522355;27;45284;-62
2022/07/19 01:43:37;;;;;;;1.00;0.82;;;19.40;49.20;21.60;94332.00;;;;10524196;28;45772;-62
2022/07/19 01:48:58;;;;;;;0.80;0.80;;;19.50;49.20;21.60;94331.00;;;;10523518;27;45183;-62
2022/07/19 01:54:20;;;;;;;0.70;0.70;;;19.40;49.20;21.60;94313.00;;;;10523402;27;45737;-62
2022/07/19 01:59:40;;;;;;;2.35;0.90;;;19.40;49.20;21.60;94305.00;;;;10523414;28;45697;-62
2022/07/19 02:05:01;;;;;;;1.30;0.80;;;19.40;49.10;21.60;94318.00;;;;10523170;27;45240;-62
2022/07/19 02:10:23;;;;;;;1.00;0.73;;;19.40;49.30;21.60;94306.00;;;;10523004;28;45207;-62
2022/07/19 02:15:44;;;;;;;1.17;0.95;;;19.40;49.20;21.60;94299.00;;;;10522645;28;45310;-62
2022/07/19 02:21:04;;;;;;;1.00;0.80;;;19.40;49.20;21.60;94289.00;;;;10523052;28;45709;-62
2022/07/19 02:26:26;;;;;;;1.00;0.82;;;19.40;49.20;21.60;94289.00;;;;10522456;28;45168;-62
2022/07/19 02:31:47;;;;;;;0.75;0.73;;;19.40;49.20;21.60;94285.00;;;;10522879;28;45461;-62
2022/07/19 02:37:08;;;;;;;1.10;0.90;;;19.40;49.20;21.60;94276.00;;;;10521677;27;45234;-62
2022/07/19 02:42:30;;;;;;;1.08;0.85;;;19.40;49.20;21.60;94283.00;;;;10522464;28;45288;-62
2022/07/19 02:47:51;;;;;;;0.70;0.70;;;19.40;49.20;21.60;94278.00;;;;10521314;27;45226;-64
2022/07/19 02:53:11;;;;;;;1.52;0.80;;;19.40;49.20;21.60;94283.00;;;;10521830;28;45228;-62
2022/07/19 02:58:33;;;;;;;0.80;0.70;;;19.40;49.30;21.60;94274.00;;;;10521648;27;45335;-62
2022/07/19 03:03:54;;;;;;;2.03;0.80;;;19.40;49.10;21.60;94276.00;;;;10521738;28;45156;-62
2022/07/19 03:09:14;;;;;;;0.95;0.80;;;19.40;49.10;21.60;94271.00;;;;10520631;28;45179;-62
2022/07/19 03:14:36;;;;;;;1.27;0.73;;;19.40;49.10;21.50;94287.00;;;;10520572;28;45132;-62
2022/07/19 03:19:57;;;;;;;0.77;0.75;;;19.40;49.10;21.50;94285.00;;;;10520598;28;45128;-62
2022/07/19 03:25:17;;;;;;;1.30;0.90;;;19.40;49.80;21.50;94292.00;;;;10520553;27;45678;-62
2022/07/19 03:30:39;;;;;;;1.00;0.70;;;19.40;49.20;21.60;94279.00;;;;10520735;28;45208;-62
2022/07/19 03:36:00;;;;;;;1.00;0.77;;;19.40;49.20;21.50;94279.00;;;;10569224;22;45215;-62
2022/07/19 03:41:20;;;;;;;1.13;1.00;;;19.40;49.30;21.50;94282.00;;;;10604640;27;45191;-62
2022/07/19 03:46:42;;;;;;;0.75;0.60;;;19.40;49.30;21.50;94293.00;;;;10584562;27;45169;-62
2022/07/19 03:52:03;;;;;;;0.98;0.88;;;19.40;49.20;21.50;94289.00;;;;10561524;27;45758;-63
2022/07/19 03:57:24;;;;;;;0.90;0.70;;;19.40;49.30;21.50;94283.00;;;;10562139;27;45123;-61
2022/07/19 04:02:46;;;;;;;0.88;0.68;;;19.40;49.30;21.50;94290.00;;;;10569264;27;45181;-62
2022/07/19 04:08:06;;;;;;;1.50;0.77;;;19.40;49.30;21.50;94283.00;;;;10568569;27;45196;-61
2022/07/19 04:13:27;;;;;;;0.90;0.63;;;19.40;49.30;21.50;94281.00;;;;10569011;27;45347;-62
2022/07/19 04:18:50;;;;;;;0.70;0.70;;;19.40;49.30;21.50;94291.00;;;;10567963;27;45226;-61
2022/07/19 04:24:10;;;;;;;0.60;0.50;;;19.40;49.30;21.50;94289.00;;;;10568289;27;45158;-62
2022/07/19 04:29:31;;;;;;;1.20;0.60;;;19.30;49.30;21.50;94292.00;;;;10568030;27;45180;-62
2022/07/19 04:34:53;;;;;;;0.75;0.63;;;19.40;49.30;21.50;94303.00;;;;10567192;27;45453;-62
2022/07/19 04:40:14;;;;;;;2.08;0.60;;;19.40;49.40;21.50;94283.00;;;;10568024;27;45179;-62
2022/07/19 04:45:34;;;;;;;0.70;0.70;;;19.40;49.30;21.50;94289.00;;;;10567307;27;45172;-63
2022/07/19 04:50:56;;;;;;;0.75;0.70;;;19.40;49.30;21.50;94291.00;;;;10567286;27;45258;-62
2022/07/19 04:56:17;;;;;;;0.80;0.70;;;19.40;49.30;21.50;94293.00;;;;10566635;27;45898;-62
2022/07/19 05:01:38;;;;;;;1.45;0.68;;;19.30;49.20;21.50;94300.00;;;;10567041;27;45212;-61
2022/07/19 05:06:59;;;;;;;0.65;0.50;;;19.30;49.20;21.50;94295.00;;;;10566538;27;45184;-61
2022/07/19 05:12:20;;;;;;;1.52;0.70;;;19.40;49.30;21.50;94295.00;;;;10566674;27;45282;-62
2022/07/19 05:17:41;;;;;;;1.25;0.80;;;19.40;49.30;21.50;94285.00;;;;10565817;27;45490;-65
2022/07/19 05:23:03;;;;;;;0.75;0.60;;;19.30;49.30;21.50;94283.00;;;;10566443;27;45175;-62
2022/07/19 05:28:24;;;;;;;0.80;0.80;;;19.40;49.30;21.50;94280.00;;;;10565969;27;45163;-62
2022/07/19 05:33:45;;;;;;;1.20;0.70;;;19.40;49.30;21.50;94297.00;;;;10566312;27;45182;-62
2022/07/19 05:39:07;;;;;;;1.33;0.80;;;19.30;49.20;21.50;94278.00;;;;10565247;27;45218;-61
2022/07/19 05:44:27;;;;;;;1.45;0.70;;;19.30;49.10;21.50;94286.00;;;;10565742;27;45689;-62
2022/07/19 05:49:48;;;;;;;0.60;0.60;;;19.30;49.10;21.50;94285.00;;;;10565431;27;45124;-61
2022/07/19 05:55:10;;;;;;;0.70;0.60;;;19.40;49.10;21.50;94286.00;;;;10564796;27;45190;-62
2022/07/19 06:00:31;;;;;;;1.05;0.70;;;19.30;49.00;21.50;94283.00;;;;10565277;27;45830;-62
2022/07/19 06:05:51;;;;;;;1.10;0.70;;;19.30;49.00;21.50;94285.00;;;;10565232;27;45175;-62
2022/07/19 06:11:14;;;;;;;0.88;0.73;;;19.40;49.00;21.50;94285.00;;;;10565959;27;45188;-61
2022/07/19 06:16:34;;;;;;;0.77;0.70;;;19.40;49.10;21.50;94295.00;;;;10565251;27;45763;-62
2022/07/19 06:21:55;;;;;;;0.98;0.70;;;19.30;48.90;21.50;94286.00;;;;10564763;27;45362;-61
2022/07/19 06:27:17;;;;;;;1.73;0.77;;;19.30;49.00;21.50;94284.00;;;;10564887;27;45340;-62
2022/07/19 06:32:38;;;;;;;0.63;0.60;;;19.30;49.00;21.50;94284.00;;;;10565145;27;45418;-64
2022/07/19 06:37:58;;;;;;;1.67;0.63;;;19.40;49.00;21.50;94273.00;;;;10564163;27;45177;-64
2022/07/19 06:43:20;;;;;;;1.02;0.70;;;19.30;49.00;21.50;94283.00;;;;10564874;27;45168;-62
2022/07/19 06:48:41;;;;;;;1.00;0.63;;;19.30;48.90;21.50;94281.00;;;;10563928;27;45214;-62
2022/07/19 06:54:01;;;;;;;0.88;0.60;;;19.40;49.00;21.50;94266.00;;;;10563491;27;46037;-62
2022/07/19 06:59:23;;;;;;;0.75;0.73;;;19.40;48.90;21.50;94280.00;;;;10563743;27;45185;-62
2022/07/19 07:04:43;;;;;;;1.40;0.60;;;19.30;48.80;21.50;94284.00;;;;10563722;27;45163;-62
2022/07/19 07:10:07;;;;;;;1.00;0.80;;;19.40;48.90;21.50;94280.00;;;;10541251;27;45685;-61
2022/07/19 07:15:28;;;;;;;1.33;0.80;;;19.30;48.80;21.50;94272.00;;;;10520269;27;45458;-63
2022/07/19 07:20:49;;;;;;;0.80;0.60;;;19.30;48.80;21.60;94273.00;;;;10520662;28;45792;-65
2022/07/19 07:26:09;;;;;;;2.05;0.60;;;19.40;49.10;21.60;94265.00;;;;10520122;28;45188;-65
2022/07/19 07:31:32;;;;;;;0.55;0.55;;;19.50;49.20;21.70;94281.00;;;;10519890;28;45155;-63
2022/07/19 07:36:52;;;;;;;0.80;0.63;;;19.50;49.70;21.70;94271.00;;;;10520214;28;45156;-63
2022/07/19 07:42:13;;;;;;;2.22;0.63;;;19.50;49.60;21.70;94281.00;;;;10520415;28;44907;-63
2022/07/19 07:47:35;;;;;;;2.25;0.70;;;19.50;49.80;21.70;94280.00;;;;10519883;27;45291;-63
2022/07/19 07:52:55;;;;;;;1.92;0.52;;;19.50;49.90;21.70;94281.00;;;;10520482;28;45043;-62
2022/07/19 07:58:16;;;;;;;1.95;0.60;;;19.50;49.90;21.60;94281.00;;;;10520036;28;45894;-62
2022/07/19 08:03:38;;;;;;;1.35;0.80;;;19.50;50.00;21.60;94276.00;;;;10519711;28;45973;-62
2022/07/19 08:08:58;;;;;;;1.35;0.60;;;19.50;50.00;21.60;94275.00;;;;10519555;28;45271;-62
2022/07/19 08:14:19;;;;;;;2.80;0.80;;;19.50;50.00;21.60;94270.00;;;;10519453;28;45156;-62
2022/07/19 08:19:41;;;;;;;0.90;0.77;;;19.50;50.00;21.60;94274.00;;;;10519452;28;45277;-63
2022/07/19 08:25:02;;;;;;;0.82;0.60;;;19.50;50.00;21.60;94266.00;;;;10519461;28;45191;-62
2022/07/19 08:30:23;;;;;;;1.08;0.70;;;19.50;50.00;21.60;94274.00;;;;10519476;28;45161;-63
2022/07/19 08:35:45;;;;;;;1.02;0.70;;;19.50;50.00;21.60;94270.00;;;;10518657;28;45760;-65
2022/07/19 08:41:06;;;;;;;1.27;0.73;;;19.50;50.00;21.60;94257.00;;;;10519414;28;45437;-62
2022/07/19 08:46:26;;;;;;;0.82;0.63;;;19.50;50.70;21.60;94271.00;;;;10523965;27;45109;-62
2022/07/19 08:51:49;;;;;;;1.95;1.00;;;19.40;49.90;21.60;94281.00;;;;10525614;28;45183;-62
2022/07/19 09:02:57;;;;;;;2.10;0.90;;;19.50;50.60;21.70;94274.00;;;;10525672;28;45280;-64
2022/07/19 09:08:19;;;;;;;2.03;0.75;;;19.50;50.30;21.70;94270.00;;;;10525183;28;45155;-64
2022/07/19 09:13:39;;;;;;;2.22;0.88;;;19.50;50.40;21.70;94269.00;;;;10525472;28;45114;-63
2022/07/19 09:19:05;;;;;;;1.55;0.80;;;19.50;50.40;21.60;94262.00;;;;10525029;28;45689;-64
2022/07/19 09:24:28;;;;;;;2.30;0.85;;;19.50;50.40;21.60;94269.00;;;;10524934;28;45899;-64
2022/07/19 09:29:54;;;;;;;1.30;0.85;;;19.50;50.40;21.60;94272.00;;;;10524824;28;45219;-63
2022/07/19 09:35:15;;;;;;;1.98;1.10;;;19.50;50.40;21.60;94267.00;;;;10527433;22;45779;-63
2022/07/19 09:40:39;;;;;;;1.52;0.75;;;19.50;50.40;21.60;94275.00;;;;10481421;28;45125;-64
2022/07/19 09:45:59;;;;;;;1.38;0.80;;;19.40;50.40;21.70;94263.00;;;;10490820;28;45212;-63
2022/07/19 09:51:21;;;;;;;1.80;0.90;;;19.50;50.40;21.60;94249.00;;;;10523313;28;45274;-64
2022/07/19 09:56:45;;;;;;;1.75;0.90;;;19.50;50.40;21.70;94257.00;;;;10522299;27;45437;-64
2022/07/19 10:02:06;;;;;;;1.13;0.80;;;19.50;50.30;21.60;94251.00;;;;10523874;28;45224;-63
2022/07/19 10:07:28;;;;;;;1.45;0.73;;;19.50;50.40;21.70;94255.00;;;;10523267;27;45768;-63
2022/07/19 10:12:52;;;;;;;2.65;0.77;;;19.50;50.30;21.70;94242.00;;;;10522728;28;45928;-64
2022/07/19 10:18:17;;;;;;;1.23;0.90;;;19.50;50.30;21.60;94259.00;;;;10508796;27;45306;-63
2022/07/19 10:23:37;;;;;;;1.33;0.93;;;19.50;50.30;21.70;94244.00;;;;10509902;28;45188;-64
2022/07/19 10:29:10;;;;;;;1.15;0.80;;;19.50;50.20;21.70;94235.00;;;;10488161;28;45423;-63
2022/07/19 10:34:31;;;;;;;2.10;0.90;;;19.50;50.30;21.70;94234.00;;;;10480801;28;45406;-63
2022/07/19 10:39:58;;;;;;;2.70;0.80;;;19.50;50.20;21.60;94227.00;;;;10480342;28;45261;-67
2022/07/19 10:45:20;;;;;;;1.13;0.80;;;19.50;50.20;21.70;94214.00;;;;10480034;28;45165;-63
2022/07/19 10:50:58;;;;;;;0.98;0.68;;;19.50;50.20;21.70;94228.00;;;;10940335;22;45557;-62
2022/07/19 10:56:21;;;;;;;3.15;0.88;;;19.50;50.20;21.70;94226.00;;;;10519224;28;45462;-62
2022/07/19 11:01:59;;;;;;;1.13;0.73;;;19.50;50.20;21.70;94219.00;;;;10520248;28;45744;-61
2022/07/19 11:12:34;;;;;;;2.38;0.65;;;19.50;50.20;21.70;94202.00;;;;9047168;22;10000880;-62
2022/07/19 11:17:58;;;;;;;0.73;0.63;;;19.50;50.20;21.70;94213.00;;;;10328894;28;45996;-62
2022/07/19 11:23:21;;;;;;;1.52;0.60;;;19.60;50.20;21.70;94208.00;;;;10324793;28;45450;-61
2022/07/19 11:28:43;;;;;;;1.20;0.80;;;19.60;50.20;21.70;94201.00;;;;10307907;28;45261;-63
2022/07/19 11:34:12;;;;;;;1.17;0.73;;;19.60;50.20;21.70;94183.00;;;;10308429;28;45224;-62
2022/07/19 11:59:06;;;;;;;0.70;0.60;;;19.10;51.00;21.50;94187.00;;;;10591775;27;1232266;-60
2022/07/19 12:04:27;;;;;;;1.00;0.80;;;19.00;51.60;21.50;94178.00;;;;10614601;27;45364;-60
2022/07/19 12:09:48;;;;;;;2.15;0.82;;;19.20;51.20;21.60;94181.00;;;;10619106;27;45542;-60
2022/07/19 12:15:11;;;;;;;1.58;0.70;;;19.40;50.70;21.70;94152.00;;;;10618176;27;45334;-59
2022/07/19 12:20:32;;;;;;;0.63;0.63;;;19.50;50.50;21.70;94135.00;;;;10612483;27;45786;-59
2022/07/19 12:25:52;;;;;;;1.30;0.80;;;19.50;50.30;21.70;94148.00;;;;10629103;27;45248;-59
2022/07/19 12:31:15;;;;;;;0.80;0.63;;;19.60;50.20;21.80;94133.00;;;;10607009;27;45206;-59
2022/07/19 12:36:37;;;;;;;1.85;0.82;;;19.60;50.20;21.80;94141.00;;;;10601501;27;45270;-59
2022/07/19 12:42:07;;;;;;;1.17;0.60;;;19.70;50.10;21.80;94137.00;;;;10587164;27;45212;-60
2022/07/19 12:47:29;;;;;;;1.33;0.80;;;19.70;50.10;21.80;94135.00;;;;10588230;27;45705;-59
2022/07/19 12:53:09;;;;;;;2.01;0.70;;;19.70;50.00;21.90;94138.00;;;;10211016;27;10001873;-60
2022/07/19 13:04:15;;;;;;;0.95;0.73;;;19.80;50.00;22.00;94123.00;;;;10491606;27;45233;-60
2022/07/19 13:09:37;;;;;;;1.95;1.00;;;19.80;49.90;22.00;94128.00;;;;10480687;28;45525;-59
2022/07/19 13:14:58;;;;;;;1.95;0.70;;;19.80;49.80;22.00;94120.00;;;;10475943;28;45598;-60
2022/07/19 13:20:20;;;;;;;1.92;0.73;;;19.80;49.80;22.00;94110.00;;;;10473115;28;45174;-59
2022/07/19 13:25:41;;;;;;;1.45;0.93;;;19.90;49.70;22.00;94112.00;;;;10473037;28;45419;-60
2022/07/19 13:31:01;;;;;;;1.02;0.77;;;19.90;49.60;22.00;94124.00;;;;10472901;28;45300;-59
2022/07/19 13:36:23;;;;;;;1.58;0.70;;;19.90;49.60;22.10;94107.00;;;;10464535;28;45204;-59
2022/07/19 13:41:44;;;;;;;2.38;0.95;;;19.90;49.50;22.10;94106.00;;;;10472373;28;45243;-60
2022/07/19 13:47:05;;;;;;;1.42;0.70;;;19.90;49.50;22.10;94100.00;;;;10469314;28;45315;-60
2022/07/19 13:52:27;;;;;;;1.63;0.82;;;20.00;49.40;22.10;94103.00;;;;10472544;28;45380;-60
2022/07/19 13:57:48;;;;;;;1.52;0.90;;;20.00;49.40;22.20;94095.00;;;;10476374;28;45306;-59
2022/07/19 14:03:08;;;;;;;2.05;0.73;;;20.10;49.40;22.30;94080.00;;;;10486670;28;45182;-60
2022/07/19 14:08:30;;;;;;;2.42;0.98;;;20.20;49.60;22.30;94087.00;;;;10462311;28;45212;-61
2022/07/19 14:13:51;;;;;;;2.45;0.85;;;20.20;49.50;22.40;94089.00;;;;10474305;28;45299;-61
2022/07/19 14:19:12;;;;;;;1.88;0.80;;;20.30;49.30;22.40;94081.00;;;;10466842;28;45195;-61
2022/07/19 14:24:34;;;;;;;2.45;1.00;;;20.30;49.70;22.50;94081.00;;;;10467724;28;45327;-61
2022/07/19 14:29:56;;;;;;;2.65;0.82;;;20.40;49.30;22.50;94084.00;;;;10474148;28;45246;-61
2022/07/19 14:35:17;;;;;;;1.95;0.98;;;20.40;49.00;22.50;94068.00;;;;10470671;28;45179;-61
2022/07/19 14:40:39;;;;;;;0.88;0.70;;;20.40;49.00;22.60;94065.00;;;;10469037;28;45123;-61
2022/07/19 14:45:59;;;;;;;2.85;0.98;;;20.50;48.70;22.60;94061.00;;;;10467479;28;45244;-59
2022/07/19 14:51:20;;;;;;;2.55;0.80;;;20.50;48.40;22.60;94065.00;;;;10468031;28;45327;-59
2022/07/19 14:56:42;;;;;;;2.58;0.80;;;20.50;48.70;22.60;94066.00;;;;10466813;28;45471;-62
2022/07/19 15:02:03;;;;;;;1.85;0.82;;;20.60;48.60;22.70;94042.00;;;;10468473;28;45422;-61
2022/07/19 15:07:23;;;;;;;2.00;0.90;;;20.60;49.00;22.70;94049.00;;;;10466645;28;45451;-60
2022/07/19 15:12:45;;;;;;;2.05;0.95;;;20.60;49.20;22.70;94030.00;;;;10466787;28;45302;-64
2022/07/19 15:18:06;;;;;;;1.27;0.90;;;20.70;49.10;22.80;94048.00;;;;10467201;28;45246;-62
2022/07/19 15:23:26;;;;;;;2.42;1.27;;;20.70;49.40;22.80;94053.00;;;;10463593;28;45362;-62
2022/07/19 15:28:48;;;;;;;1.98;0.68;;;20.70;49.50;22.80;94045.00;;;;10465343;28;46035;-62
2022/07/19 15:34:09;;;;;;;1.27;0.70;;;20.70;49.50;22.80;94042.00;;;;10466545;28;45320;-60
2022/07/19 15:39:29;;;;;;;2.10;0.93;;;20.80;49.50;22.90;94046.00;;;;10466478;28;45285;-61
2022/07/19 15:44:51;;;;;;;1.75;0.85;;;20.80;49.70;22.90;94038.00;;;;10467104;28;45295;-60
2022/07/19 15:50:14;;;;;;;0.60;0.60;;;20.80;49.60;22.90;94038.00;;;;10466506;28;45398;-60
2022/07/19 15:55:35;;;;;;;3.90;0.70;;;20.80;49.70;22.90;94028.00;;;;10465859;28;45537;-61
2022/07/19 16:00:57;;;;;;;0.90;0.60;;;20.90;49.40;23.00;94036.00;;;;10465674;28;45375;-62
2022/07/19 16:06:19;;;;;;;1.25;0.70;;;20.90;49.30;23.00;94030.00;;;;10465136;28;45331;-62
2022/07/19 16:11:39;;;;;;;1.25;0.80;;;20.90;49.40;23.00;94034.00;;;;10466112;28;45251;-61
2022/07/19 16:17:02;;;;;;;1.25;0.88;;;20.90;49.40;23.00;94009.00;;;;10465437;28;45514;-60
2022/07/19 16:22:22;;;;;;;1.88;0.70;;;21.00;50.10;23.10;94015.00;;;;10465325;28;45355;-59
2022/07/19 16:27:43;;;;;;;1.45;0.70;;;21.00;49.30;23.10;94006.00;;;;10465191;28;45359;-60
2022/07/19 16:33:05;;;;;;;0.98;0.73;;;21.00;49.30;23.10;94015.00;;;;10463899;28;45355;-60
2022/07/19 16:38:26;;;;;;;1.27;0.77;;;21.00;49.20;23.10;94011.00;;;;10463703;28;45299;-60
2022/07/19 16:43:47;;;;;;;1.73;0.77;;;21.00;49.20;23.10;93991.00;;;;10470794;28;45210;-59
2022/07/19 16:49:09;;;;;;;2.28;0.60;;;21.00;49.30;23.10;93997.00;;;;10474906;28;45209;-60
2022/07/19 16:54:30;;;;;;;1.35;0.70;;;21.00;49.20;23.10;93989.00;;;;10474427;28;45374;-60
2022/07/19 16:59:51;;;;;;;1.27;0.80;;;21.00;49.10;23.10;94008.00;;;;10469087;28;45216;-62
2022/07/19 17:05:14;;;;;;;3.42;0.80;;;21.00;49.10;23.10;93990.00;;;;10463481;28;45329;-63
2022/07/19 17:10:35;;;;;;;1.15;0.70;;;21.00;49.00;23.10;94001.00;;;;10475073;28;45266;-63
2022/07/19 17:15:56;;;;;;;1.13;0.60;;;21.00;48.90;23.10;93997.00;;;;10473632;28;45310;-63
2022/07/19 17:21:20;;;;;;;1.00;0.63;;;21.00;49.00;23.10;93988.00;;;;10454384;28;45237;-63
2022/07/19 17:26:40;;;;;;;1.05;0.80;;;21.00;49.00;23.10;93991.00;;;;10426504;28;89738;-63
2022/07/19 17:32:01;;;;;;;1.20;0.73;;;21.00;49.00;23.10;94004.00;;;;10469221;28;45171;-63
2022/07/19 17:37:23;;;;;;;1.17;0.80;;;21.00;49.00;23.10;94008.00;;;;10470997;28;45179;-63
2022/07/19 17:42:43;;;;;;;0.80;0.55;;;20.90;49.00;23.00;94017.00;;;;10423376;27;45236;-63
2022/07/19 17:48:04;;;;;;;1.58;0.90;;;21.00;49.00;23.00;93995.00;;;;10481689;27;45202;-63
2022/07/19 17:53:26;;;;;;;1.13;0.60;;;20.90;49.00;23.00;94001.00;;;;10477485;28;45377;-63
2022/07/19 17:58:47;;;;;;;0.70;0.63;;;20.90;49.10;23.00;94009.00;;;;10490549;28;45424;-63
2022/07/19 18:04:09;;;;;;;1.33;0.70;;;20.90;49.10;23.00;94012.00;;;;10485733;28;45360;-63
2022/07/19 18:09:31;;;;;;;0.93;0.50;;;20.90;49.20;22.90;93999.00;;;;10480038;28;45323;-63
2022/07/19 18:14:52;;;;;;;1.77;0.70;;;20.90;49.30;22.90;94001.00;;;;10478780;28;45203;-63
2022/07/19 18:20:13;;;;;;;1.00;0.60;;;20.80;49.30;22.90;93998.00;;;;10479518;28;45178;-63
2022/07/19 18:25:34;;;;;;;0.80;0.50;;;20.80;49.40;22.80;93991.00;;;;10478628;28;45358;-63
2022/07/19 18:30:55;;;;;;;1.13;0.70;;;20.70;49.40;22.80;93992.00;;;;10479557;28;45274;-63
2022/07/19 18:36:16;;;;;;;2.25;0.82;;;20.70;49.40;22.80;93999.00;;;;10478712;28;45258;-63
2022/07/19 18:41:38;;;;;;;0.70;0.60;;;20.70;49.50;22.80;93984.00;;;;10489060;28;45344;-63
2022/07/19 18:46:58;;;;;;;0.80;0.57;;;20.70;49.70;22.80;93996.00;;;;10478004;28;45263;-63
2022/07/19 18:52:18;;;;;;;1.70;0.80;;;20.60;49.60;22.70;93983.00;;;;10478040;28;45168;-63
2022/07/19 18:57:41;;;;;;;0.77;0.57;;;20.60;49.70;22.70;93997.00;;;;10477232;28;45160;-64
2022/07/19 19:03:02;;;;;;;1.10;0.57;;;20.60;49.70;22.70;93983.00;;;;10489506;28;45618;-63
2022/07/19 19:08:23;;;;;;;1.40;0.60;;;20.60;49.80;22.70;93993.00;;;;10465435;28;45311;-63
2022/07/19 19:13:45;;;;;;;0.95;0.70;;;20.50;49.80;22.60;93991.00;;;;10477130;28;45237;-63
2022/07/19 19:19:05;;;;;;;0.95;0.63;;;20.50;49.90;22.60;94001.00;;;;10478000;28;45268;-63
2022/07/19 19:24:26;;;;;;;0.95;0.73;;;20.40;49.80;22.60;94003.00;;;;10470871;28;45261;-63
2022/07/19 19:29:48;;;;;;;1.90;0.80;;;20.50;49.90;22.60;94008.00;;;;10475838;28;45586;-63
2022/07/19 19:35:10;;;;;;;1.95;0.68;;;20.40;50.70;22.60;93999.00;;;;10477653;28;45312;-63
2022/07/19 19:40:31;;;;;;;0.60;0.60;;;20.40;50.00;22.50;94018.00;;;;10480191;28;45199;-63
2022/07/19 19:45:53;;;;;;;1.13;0.70;;;20.40;50.10;22.50;94036.00;;;;10476838;28;45168;-63
2022/07/19 19:51:14;;;;;;;0.85;0.50;;;20.40;50.10;22.50;94030.00;;;;10476612;28;45285;-63
2022/07/19 19:56:36;;;;;;;0.60;0.55;;;20.40;50.10;22.50;94037.00;;;;10475550;28;45203;-63
2022/07/19 20:01:58;;;;;;;2.20;0.80;;;20.40;50.10;22.50;94049.00;;;;10471149;28;45190;-63
2022/07/19 20:07:19;;;;;;;0.90;0.60;;;20.30;50.00;22.50;94047.00;;;;10471193;28;45289;-63
2022/07/19 20:12:39;;;;;;;1.42;0.68;;;20.30;50.70;22.50;94047.00;;;;10469902;28;45204;-63
2022/07/19 20:18:01;;;;;;;1.95;0.70;;;20.30;50.10;22.40;94041.00;;;;10476636;28;45291;-63
2022/07/19 20:23:22;;;;;;;1.75;0.90;;;20.30;50.10;22.40;94041.00;;;;10484192;28;45353;-63
2022/07/19 20:28:43;;;;;;;1.35;0.60;;;20.30;50.10;22.40;94038.00;;;;10476332;28;45135;-63
2022/07/19 20:34:05;;;;;;;1.92;0.75;;;20.30;50.10;22.40;94044.00;;;;10475720;28;44677;-63
2022/07/19 20:39:26;;;;;;;1.48;0.80;;;20.20;49.90;22.40;94040.00;;;;10476083;28;45190;-63
2022/07/19 20:44:47;;;;;;;1.38;0.70;;;20.20;49.80;22.40;94038.00;;;;10476696;28;45372;-63
2022/07/19 20:50:10;;;;;;;1.77;0.63;;;20.20;49.90;22.30;94043.00;;;;10475635;28;45190;-63
2022/07/19 20:55:31;;;;;;;1.05;0.63;;;20.20;49.80;22.30;94037.00;;;;10474416;28;45268;-63
2022/07/19 21:00:52;;;;;;;1.77;0.90;;;20.20;49.90;22.30;94042.00;;;;10475737;28;45172;-63
2022/07/19 21:06:14;;;;;;;0.82;0.73;;;20.20;49.70;22.30;94041.00;;;;10475201;28;45159;-63
2022/07/19 21:11:34;;;;;;;1.90;0.80;;;20.20;49.80;22.30;94033.00;;;;10474924;28;45138;-63
2022/07/19 21:16:55;;;;;;;1.05;0.70;;;20.20;49.70;22.30;94033.00;;;;10476563;28;45179;-63
2022/07/19 21:22:17;;;;;;;1.13;0.75;;;20.10;49.60;22.30;94037.00;;;;10487220;28;45346;-63
2022/07/19 21:27:37;;;;;;;1.02;0.80;;;20.10;49.50;22.30;94030.00;;;;10474274;28;45321;-63
2022/07/19 21:32:58;;;;;;;1.38;0.80;;;20.10;49.60;22.30;94032.00;;;;10463517;28;45219;-63
2022/07/19 21:38:20;;;;;;;1.73;0.70;;;20.10;49.60;22.20;94041.00;;;;10474226;28;45242;-63
2022/07/19 21:43:42;;;;;;;0.93;0.73;;;20.10;49.40;22.20;94023.00;;;;10474507;28;45218;-63
2022/07/19 21:49:05;;;;;;;1.35;0.80;;;20.10;49.50;22.20;94050.00;;;;10473988;28;45155;-63
2022/07/19 21:54:27;;;;;;;0.80;0.68;;;20.10;49.50;22.20;94038.00;;;;10473092;28;45239;-63
2022/07/19 21:59:48;;;;;;;1.90;0.70;;;20.10;49.50;22.20;94042.00;;;;10473664;28;45333;-63
2022/07/19 22:05:10;;;;;;;1.13;0.70;;;20.10;49.50;22.20;94047.00;;;;10486070;28;45276;-63
2022/07/19 22:10:32;;;;;;;0.80;0.70;;;20.10;49.40;22.20;94048.00;;;;10473380;28;45405;-63
2022/07/19 22:15:53;;;;;;;1.83;0.80;;;20.00;49.40;22.20;94047.00;;;;10472661;28;45155;-63
2022/07/19 22:21:14;;;;;;;1.08;0.88;;;20.00;49.40;22.20;94047.00;;;;10486946;28;45221;-63
2022/07/19 22:26:36;;;;;;;1.77;0.80;;;20.00;49.30;22.20;94052.00;;;;10471663;28;45219;-63
2022/07/19 22:31:56;;;;;;;2.90;0.75;;;20.00;49.30;22.20;94046.00;;;;10472163;28;45249;-63
2022/07/19 22:37:17;;;;;;;0.95;0.80;;;20.00;49.30;22.20;94057.00;;;;10471308;28;45439;-63
2022/07/19 22:42:38;;;;;;;0.85;0.70;;;20.00;49.20;22.20;94061.00;;;;10472727;28;45215;-63
2022/07/19 22:47:59;;;;;;;0.75;0.70;;;20.00;49.30;22.10;94054.00;;;;10471257;28;45440;-63
2022/07/19 22:53:20;;;;;;;1.73;0.70;;;20.00;49.20;22.10;94059.00;;;;10471425;28;45266;-63
2022/07/19 22:58:42;;;;;;;1.58;0.82;;;20.00;49.20;22.10;94046.00;;;;10471064;28;45441;-63
2022/07/19 23:04:03;;;;;;;1.10;0.77;;;20.00;49.10;22.10;94051.00;;;;10471575;28;45266;-63
2022/07/19 23:09:24;;;;;;;1.08;0.80;;;20.00;49.20;22.10;94059.00;;;;10471429;28;45249;-63
2022/07/19 23:14:46;;;;;;;1.25;0.80;;;20.00;49.10;22.10;94067.00;;;;10456838;28;45223;-63
2022/07/19 23:20:08;;;;;;;1.65;0.90;;;20.00;49.10;22.10;94066.00;;;;10476405;28;45202;-63
2022/07/19 23:25:28;;;;;;;1.10;0.82;;;20.00;49.10;22.10;94051.00;;;;10473325;28;45135;-63
2022/07/19 23:30:50;;;;;;;2.22;0.98;;;19.90;49.10;22.10;94057.00;;;;10470562;28;45243;-63
2022/07/19 23:36:11;;;;;;;1.00;0.73;;;19.90;49.00;22.10;94056.00;;;;10469994;28;45224;-63
2022/07/19 23:41:31;;;;;;;0.90;0.70;;;19.90;49.00;22.10;94047.00;;;;10469620;28;45212;-63
2022/07/19 23:46:53;;;;;;;1.52;0.70;;;19.90;49.00;22.10;94061.00;;;;10470241;28;45216;-63
2022/07/19 23:52:14;;;;;;;1.17;0.70;;;19.90;49.00;22.10;94051.00;;;;10458162;28;45408;-63
2022/07/19 23:57:34;;;;;;;1.15;0.70;;;19.90;49.00;22.10;94051.00;;;;10468741;28;45277;-63
